EDMO

Oberpfaffenhofen Airport

Germany
METAR EDMO 131920Z 07006KT 9999 BKN013 M03/M05 Q1013
Observed Flight Rules
Dec-13 @ 19:20 UTC (5 hours ago) Marginal Visual Flight Rules
Wind Visibility Clouds
70° at 6 knots 10,000+ meters
  • Broken at 1,300' AGL
Temperatures Readings
Current -3°C / 27°F
Dewpoint -5°C / 23°F
Humidity 86%
Altimeter 29.91" Hg
Pressure 1013 hPa
Elevation 600
METAR EDMO 131920Z 07006KT 9999 BKN013 M03/M05 Q1013
Observed Flight Rules
Dec-13 @ 19:20 UTC
(5 hours ago)
MVFR
Wind Visibility
70° at 6 knots 10,000+ meters
Clouds
  • Broken at 1,300' AGL
Temperature Dewpoint
-3°C / 27°F -5°C / 23°F
Humidity Altimeter Pressure
86% 29.91" Hg 1013 hPa